Time;durP1;ratioP1;P1;durP2;ratioP2;P2;SDS_P1;SDS_P2;PMS_P1;PMS_P2;Temp;Humidity;BMP_temperature;BMP_pressure;BME280_temperature;BME280_humidity;BME280_pressure;Samples;Min_cycle;Max_cycle;Signal;HPM_P1;HPM_P2
2022/04/10 00:00:23;;;;;;;4.15;1.48;;;;;;;7.27;58.44;100915.06;4983057;28;20125;-82
2022/04/10 00:02:49;;;;;;;4.93;1.85;;;;;;;7.22;58.89;100916.19;4988142;28;20034;-82
2022/04/10 00:05:14;;;;;;;7.40;2.05;;;;;;;7.18;58.62;100912.03;4991975;28;20117;-83
2022/04/10 00:07:39;;;;;;;4.85;1.88;;;;;;;7.18;58.72;100925.09;4991519;28;20030;-82
2022/04/10 00:10:06;;;;;;;6.80;2.22;;;;;;;7.15;58.74;100921.69;4991577;28;20026;-82
2022/04/10 00:12:34;;;;;;;6.50;1.58;;;;;;;7.24;58.32;100922.19;4993309;28;20037;-82
2022/04/10 00:15:01;;;;;;;4.35;1.90;;;;;;;7.16;58.62;100922.53;4991434;28;20026;-82
2022/04/10 00:17:26;;;;;;;5.65;1.70;;;;;;;7.09;58.25;100923.72;4978254;28;20049;-82
2022/04/10 00:19:52;;;;;;;7.15;1.50;;;;;;;6.96;58.24;100926.03;4987287;28;20039;-82
2022/04/10 00:22:18;;;;;;;5.03;2.15;;;;;;;6.91;57.65;100928.00;4993146;28;20105;-82
2022/04/10 00:24:43;;;;;;;4.97;2.10;;;;;;;6.84;58.68;100921.38;4991453;28;20038;-82
2022/04/10 00:27:13;;;;;;;4.60;1.63;;;;;;;6.86;58.50;100927.38;4993011;28;20105;-81
2022/04/10 00:29:39;;;;;;;4.32;2.10;;;;;;;6.87;58.84;100921.22;4978634;28;20069;-82
2022/04/10 00:32:05;;;;;;;3.83;1.70;;;;;;;6.85;58.48;100926.53;4989161;28;20057;-82
2022/04/10 00:34:30;;;;;;;8.73;1.80;;;;;;;6.83;59.18;100923.16;4985288;28;20023;-84
2022/04/10 00:36:55;;;;;;;4.88;2.00;;;;;;;6.88;59.16;100925.53;4986451;28;20035;-82
2022/04/10 00:39:21;;;;;;;6.43;1.30;;;;;;;6.86;58.83;100923.00;4978182;28;20046;-82
2022/04/10 00:41:46;;;;;;;4.78;1.88;;;;;;;6.85;59.55;100912.63;4989923;28;20038;-83
2022/04/10 00:44:11;;;;;;;5.50;2.28;;;;;;;6.80;59.38;100917.22;4991433;28;20030;-82
2022/04/10 00:46:38;;;;;;;3.50;1.75;;;;;;;6.75;59.08;100915.66;4977523;28;20493;-82
2022/04/10 00:49:05;;;;;;;4.32;1.52;;;;;;;6.77;59.16;100906.88;4979866;28;20030;-82
2022/04/10 00:51:41;;;;;;;5.38;1.83;;;;;;;6.72;58.87;100913.16;4993171;28;20030;-82
2022/04/10 00:54:26;;;;;;;7.32;1.65;;;;;;;6.82;59.38;100908.38;4991851;28;20072;-82
2022/04/10 00:56:52;;;;;;;6.53;2.00;;;;;;;6.61;59.88;100915.38;4992673;28;20034;-82
2022/04/10 00:59:17;;;;;;;8.23;2.33;;;;;;;6.51;59.67;100901.88;4989563;28;20261;-82
2022/04/10 01:01:46;;;;;;;8.18;2.60;;;;;;;6.48;60.09;100902.03;4987693;28;20570;-82
2022/04/10 01:04:16;;;;;;;5.03;1.83;;;;;;;6.40;60.18;100905.88;4981041;28;20027;-82
2022/04/10 01:06:42;;;;;;;5.40;2.00;;;;;;;6.40;60.66;100898.91;4978592;28;20117;-82
2022/04/10 01:09:08;;;;;;;7.18;2.47;;;;;;;6.42;60.56;100904.03;4992693;28;20034;-82
2022/04/10 01:11:34;;;;;;;8.38;2.17;;;;;;;6.44;60.46;100905.69;4978041;28;20134;-82
2022/04/10 01:14:00;;;;;;;9.82;1.98;;;;;;;6.49;60.64;100902.88;4979256;28;20022;-82
2022/04/10 01:16:28;;;;;;;5.88;2.28;;;;;;;6.47;60.17;100902.09;4982271;28;20037;-83
2022/04/10 01:18:55;;;;;;;7.68;2.03;;;;;;;6.46;60.50;100903.03;4979684;28;20030;-83
2022/04/10 01:21:27;;;;;;;4.85;1.50;;;;;;;6.59;60.31;100903.31;4989711;28;20110;-83
2022/04/10 01:23:54;;;;;;;5.60;1.73;;;;;;;6.44;60.14;100894.41;4990257;28;20023;-84
2022/04/10 01:26:21;;;;;;;4.70;1.80;;;;;;;6.49;60.29;100905.47;4990680;28;20473;-84
2022/04/10 01:29:14;;;;;;;5.25;1.83;;;;;;;6.62;60.05;100898.81;4990851;28;20030;-83
2022/04/10 01:31:45;;;;;;;7.43;2.20;;;;;;;6.44;59.50;100899.63;4990650;28;20038;-83
2022/04/10 01:34:15;;;;;;;6.70;1.88;;;;;;;6.33;60.05;100900.91;4986068;28;20023;-82
2022/04/10 01:36:42;;;;;;;3.45;1.77;;;;;;;6.30;59.88;100901.06;4985243;28;20057;-82
2022/04/10 01:39:09;;;;;;;9.85;2.58;;;;;;;6.22;59.97;100897.94;4990692;28;20026;-83
2022/04/10 01:41:35;;;;;;;10.52;2.80;;;;;;;6.12;60.38;100901.81;4990157;28;20487;-83
2022/04/10 01:44:02;;;;;;;10.60;2.63;;;;;;;6.01;60.52;100893.59;4992091;28;20101;-83
2022/04/10 01:46:29;;;;;;;9.25;2.22;;;;;;;6.04;60.88;100888.25;4991400;28;20073;-83
2022/04/10 01:48:55;;;;;;;11.48;2.60;;;;;;;6.03;61.21;100889.19;4984861;28;20054;-83
2022/04/10 01:51:21;;;;;;;9.82;2.53;;;;;;;6.05;61.12;100890.78;4992364;28;20384;-83
2022/04/10 01:53:46;;;;;;;5.30;2.35;;;;;;;6.07;61.10;100891.56;4988002;28;20385;-83
2022/04/10 01:56:12;;;;;;;6.13;2.70;;;;;;;6.05;61.17;100888.19;4976445;28;20165;-83
2022/04/10 01:58:42;;;;;;;8.35;3.65;;;;;;;6.08;61.15;100882.88;4980852;28;20065;-83
2022/04/10 02:01:10;;;;;;;7.28;2.13;;;;;;;6.10;61.02;100886.25;4993327;28;20436;-83
2022/04/10 02:03:36;;;;;;;8.10;2.20;;;;;;;6.10;61.35;100874.94;4994652;28;20388;-83
2022/04/10 02:06:03;;;;;;;5.05;2.55;;;;;;;6.13;60.97;100869.63;4983431;28;20027;-83
2022/04/10 02:08:30;;;;;;;4.95;2.35;;;;;;;6.13;61.28;100873.06;4976020;28;20470;-83
2022/04/10 02:10:55;;;;;;;4.93;2.30;;;;;;;6.13;61.39;100865.25;4981802;28;20038;-83
2022/04/10 02:13:22;;;;;;;5.45;2.28;;;;;;;6.18;61.00;100861.59;4992980;28;20034;-83
2022/04/10 02:15:47;;;;;;;8.43;2.95;;;;;;;6.13;61.18;100853.97;4976096;28;20023;-83
2022/04/10 02:18:13;;;;;;;11.32;2.67;;;;;;;6.14;60.87;100856.53;4991723;28;20041;-83
2022/04/10 02:20:38;;;;;;;8.60;2.65;;;;;;;6.14;61.10;100856.53;4993602;28;20405;-83
2022/04/10 02:23:04;;;;;;;11.35;2.95;;;;;;;6.11;60.65;100854.03;4994881;28;20122;-83
2022/04/10 02:25:30;;;;;;;11.65;2.88;;;;;;;6.05;61.00;100853.47;4975388;28;20114;-83
2022/04/10 02:27:55;;;;;;;6.93;2.50;;;;;;;5.97;60.94;100845.97;4977625;28;20038;-84
2022/04/10 02:30:20;;;;;;;9.63;3.08;;;;;;;5.75;62.17;100853.78;4994926;28;20037;-83
2022/04/10 02:32:46;;;;;;;6.93;2.40;;;;;;;5.71;62.24;100844.41;4985884;28;20117;-83
2022/04/10 02:35:12;;;;;;;7.75;2.33;;;;;;;5.73;61.85;100847.78;4985789;28;20421;-83
2022/04/10 02:37:39;;;;;;;7.68;2.58;;;;;;;5.76;62.32;100861.50;4980340;28;20022;-83
2022/04/10 02:40:05;;;;;;;4.05;1.70;;;;;;;5.76;62.03;100858.06;4993559;28;20022;-83
2022/04/10 02:42:33;;;;;;;6.88;2.15;;;;;;;5.83;61.85;100861.28;4994070;28;20036;-83
2022/04/10 02:45:03;;;;;;;7.30;1.92;;;;;;;5.92;61.63;100853.94;4992959;28;20022;-83
2022/04/10 02:47:30;;;;;;;5.70;2.13;;;;;;;5.81;61.80;100863.13;4991137;28;20049;-83
2022/04/10 02:49:56;;;;;;;6.82;1.85;;;;;;;5.77;61.52;100857.19;4992169;28;20770;-83
2022/04/10 02:52:22;;;;;;;7.22;2.05;;;;;;;5.75;61.57;100853.78;4988015;28;20256;-83
2022/04/10 02:54:47;;;;;;;6.53;2.25;;;;;;;5.75;61.49;100854.63;4986343;28;20033;-83
2022/04/10 02:57:12;;;;;;;9.32;2.13;;;;;;;5.71;61.51;100842.63;4992749;28;20030;-83
2022/04/10 02:59:38;;;;;;;5.13;2.10;;;;;;;5.73;61.31;100851.22;4989410;28;20055;-83
2022/04/10 03:02:03;;;;;;;3.33;1.85;;;;;;;5.70;60.92;100850.50;4982001;28;20026;-83
2022/04/10 03:04:29;;;;;;;8.75;1.88;;;;;;;5.64;61.08;100849.00;4982145;28;20022;-83
2022/04/10 03:06:54;;;;;;;4.93;1.58;;;;;;;5.57;60.74;100851.00;4992984;28;20026;-83
2022/04/10 03:09:20;;;;;;;6.43;1.52;;;;;;;5.54;60.95;100851.13;4994157;28;20023;-83
2022/04/10 03:11:45;;;;;;;5.25;1.80;;;;;;;5.56;60.83;100854.50;4992465;28;20041;-83
2022/04/10 03:14:10;;;;;;;4.90;1.60;;;;;;;5.56;60.85;100851.06;4994219;28;20022;-83
2022/04/10 03:16:36;;;;;;;4.13;1.10;;;;;;;5.54;60.96;100856.31;4992598;28;20027;-83
2022/04/10 03:19:02;;;;;;;5.10;1.55;;;;;;;5.56;60.81;100853.66;4989884;28;20041;-83
2022/04/10 03:21:27;;;;;;;3.90;1.65;;;;;;;5.64;60.75;100858.56;4974419;28;20473;-83
2022/04/10 03:23:52;;;;;;;4.85;1.33;;;;;;;5.71;60.10;100870.47;4980621;28;20026;-83
2022/04/10 03:26:18;;;;;;;3.63;1.90;;;;;;;5.62;60.43;100858.63;4991535;28;20126;-83
2022/04/10 03:28:43;;;;;;;6.53;2.20;;;;;;;5.65;60.18;100865.50;4990252;28;20103;-82
2022/04/10 03:31:09;;;;;;;4.38;1.70;;;;;;;5.64;60.36;100862.03;4993412;28;20033;-83
2022/04/10 03:33:34;;;;;;;3.95;1.50;;;;;;;5.62;60.43;100863.84;4976533;28;20039;-83
2022/04/10 03:35:59;;;;;;;4.53;1.65;;;;;;;5.54;60.71;100865.91;4981080;28;20045;-82
2022/04/10 03:38:25;;;;;;;4.75;1.90;;;;;;;5.56;60.67;100864.09;4974745;28;20041;-82
2022/04/10 03:40:50;;;;;;;6.07;1.90;;;;;;;5.51;60.56;100855.59;4993695;28;20120;-83
2022/04/10 03:43:16;;;;;;;5.88;1.50;;;;;;;5.52;60.81;100871.16;4992428;28;20354;-83
2022/04/10 03:45:41;;;;;;;4.07;1.67;;;;;;;5.40;60.93;100855.19;4992386;28;20481;-83
2022/04/10 03:48:08;;;;;;;5.85;1.67;;;;;;;5.32;61.58;100861.53;4990881;28;20018;-83
2022/04/10 03:50:34;;;;;;;6.20;1.48;;;;;;;5.51;60.81;100855.59;4991825;28;20101;-83
2022/04/10 03:53:01;;;;;;;5.22;1.40;;;;;;;5.35;61.37;100856.22;4993730;28;20026;-83
2022/04/10 03:55:27;;;;;;;4.20;1.88;;;;;;;5.42;60.99;100856.81;4980889;28;20025;-83
2022/04/10 03:57:52;;;;;;;5.85;1.52;;;;;;;5.30;61.17;100849.50;4974104;28;20039;-83
2022/04/10 04:00:19;;;;;;;3.33;1.20;;;;;;;5.32;61.17;100845.06;4983919;28;20081;-83
2022/04/10 04:02:45;;;;;;;4.53;1.40;;;;;;;5.29;60.92;100846.06;4988547;28;20073;-83
2022/04/10 04:05:10;;;;;;;7.63;1.20;;;;;;;5.24;61.11;100836.72;4988981;28;20065;-83
2022/04/10 04:07:36;;;;;;;10.15;1.60;;;;;;;5.27;61.31;100837.44;4993685;28;20066;-83
2022/04/10 04:10:03;;;;;;;5.28;1.45;;;;;;;5.26;60.74;100840.09;4991529;28;20037;-82
2022/04/10 04:12:28;;;;;;;3.47;1.30;;;;;;;5.23;60.44;100830.63;4993584;28;20584;-83
2022/04/10 04:14:54;;;;;;;6.15;1.33;;;;;;;5.24;61.34;100834.94;4992521;28;20064;-83
2022/04/10 04:17:19;;;;;;;2.15;1.20;;;;;;;5.25;60.86;100838.41;4993173;28;20113;-83
2022/04/10 04:19:49;;;;;;;3.55;1.30;;;;;;;5.32;60.96;100837.25;4982447;28;20046;-83
2022/04/10 04:22:15;;;;;;;4.57;1.42;;;;;;;5.47;60.55;100841.88;4974050;28;20057;-83
2022/04/10 04:24:40;;;;;;;3.83;1.50;;;;;;;5.49;60.37;100841.78;4986757;28;20429;-83
2022/04/10 04:27:06;;;;;;;3.08;1.40;;;;;;;5.48;59.86;100840.94;4991371;28;20038;-83
2022/04/10 04:29:31;;;;;;;4.40;1.38;;;;;;;5.53;60.19;100844.22;4992286;28;20093;-83
2022/04/10 04:31:57;;;;;;;3.75;1.40;;;;;;;5.49;60.30;100841.78;4992849;28;20018;-83
2022/04/10 04:34:23;;;;;;;4.53;1.20;;;;;;;5.45;60.05;100841.09;4991675;28;20041;-83
2022/04/10 04:36:48;;;;;;;5.45;1.70;;;;;;;5.43;59.45;100842.03;4992699;28;20065;-82
2022/04/10 04:39:14;;;;;;;4.43;1.42;;;;;;;5.38;59.95;100842.22;4993510;28;20061;-82
2022/04/10 04:41:39;;;;;;;10.82;1.70;;;;;;;5.29;59.46;100850.38;4992863;28;20492;-82
2022/04/10 04:44:05;;;;;;;4.63;1.40;;;;;;;5.15;59.86;100838.78;4993081;28;20440;-84
2022/04/10 04:46:30;;;;;;;8.60;2.05;;;;;;;4.92;59.66;100829.22;4992423;28;20026;-83
2022/04/10 04:48:55;;;;;;;4.55;1.55;;;;;;;5.01;59.72;100832.38;4991876;28;20049;-82
2022/04/10 04:51:21;;;;;;;3.65;1.23;;;;;;;4.83;59.68;100831.31;4993138;28;20033;-82
2022/04/10 04:53:46;;;;;;;5.22;1.42;;;;;;;4.97;60.23;100829.88;4992271;28;20026;-81
2022/04/10 04:56:12;;;;;;;5.00;1.67;;;;;;;4.97;59.99;100840.28;4993108;28;20029;-81
2022/04/10 04:58:37;;;;;;;3.63;1.20;;;;;;;4.94;59.56;100839.59;4992114;28;20391;-81
2022/04/10 05:01:02;;;;;;;2.50;1.55;;;;;;;4.96;59.31;100840.38;4983369;28;20485;-82
2022/04/10 05:03:28;;;;;;;6.95;1.70;;;;;;;4.96;59.47;100842.97;4992993;28;20101;-82
2022/04/10 05:05:53;;;;;;;5.97;2.08;;;;;;;5.00;59.21;100844.56;4992585;28;20030;-82
2022/04/10 05:08:20;;;;;;;4.90;1.50;;;;;;;5.01;59.38;100841.03;4991903;28;20105;-82
2022/04/10 05:10:45;;;;;;;2.78;1.40;;;;;;;5.01;59.82;100846.22;4984520;28;20106;-82
2022/04/10 05:13:11;;;;;;;4.63;1.23;;;;;;;4.99;59.27;100848.06;4993104;28;20109;-82
2022/04/10 05:15:36;;;;;;;4.60;1.55;;;;;;;5.00;59.71;100844.56;4991860;28;20030;-82
2022/04/10 05:18:02;;;;;;;3.65;1.55;;;;;;;5.00;59.78;100841.94;4992402;28;20511;-82
2022/04/10 05:20:27;;;;;;;7.32;1.40;;;;;;;5.08;59.10;100834.69;4991483;28;20092;-83
2022/04/10 05:22:52;;;;;;;4.10;1.42;;;;;;;4.96;60.05;100842.97;4992838;28;20101;-82
2022/04/10 05:25:18;;;;;;;2.40;1.10;;;;;;;4.91;59.93;100839.69;4991604;28;20032;-82
2022/04/10 05:27:43;;;;;;;3.17;1.20;;;;;;;4.92;59.71;100838.78;4991720;28;20552;-82
2022/04/10 05:30:09;;;;;;;4.68;1.55;;;;;;;4.95;59.71;100839.50;4988528;28;20438;-82
2022/04/10 05:32:35;;;;;;;5.63;1.75;;;;;;;4.94;60.16;100829.19;4989385;28;20492;-82
2022/04/10 05:35:01;;;;;;;4.90;2.15;;;;;;;4.99;60.06;100837.63;4995318;28;20033;-82
2022/04/10 05:37:26;;;;;;;9.70;2.30;;;;;;;5.01;59.79;100841.03;4995234;28;20432;-82
2022/04/10 05:39:51;;;;;;;5.45;1.73;;;;;;;5.05;60.11;100842.59;4993661;28;20034;-82
2022/04/10 05:42:17;;;;;;;4.05;1.13;;;;;;;5.07;59.55;100847.75;4994840;28;20023;-82
2022/04/10 05:44:42;;;;;;;8.05;1.65;;;;;;;5.07;60.35;100839.94;4994616;28;20027;-82
2022/04/10 05:47:07;;;;;;;5.70;1.70;;;;;;;5.10;60.25;100843.28;4995798;28;20030;-82
2022/04/10 05:49:33;;;;;;;2.45;1.50;;;;;;;5.14;60.37;100839.66;4994050;28;20041;-82
2022/04/10 05:51:58;;;;;;;2.85;1.35;;;;;;;5.15;59.96;100838.78;4996127;28;20028;-82
2022/04/10 05:54:24;;;;;;;4.45;1.33;;;;;;;5.21;60.63;100853.28;4994585;28;20073;-82
2022/04/10 05:56:49;;;;;;;4.03;1.65;;;;;;;5.27;60.52;100849.59;4995917;28;20026;-82
2022/04/10 05:59:14;;;;;;;2.67;1.38;;;;;;;5.29;60.55;100855.59;4994122;28;20443;-82
2022/04/10 06:01:40;;;;;;;6.25;1.50;;;;;;;5.35;60.67;100855.34;4987680;28;20046;-82
2022/04/10 06:04:05;;;;;;;5.60;1.55;;;;;;;5.40;60.75;100850.81;4975227;28;20488;-82
2022/04/10 06:06:30;;;;;;;5.88;1.52;;;;;;;5.49;60.37;100850.47;4981569;28;20034;-82
2022/04/10 06:08:56;;;;;;;4.13;1.25;;;;;;;5.53;60.64;100854.66;4988615;28;20027;-82
2022/04/10 06:11:21;;;;;;;4.13;2.00;;;;;;;5.61;60.15;100850.88;4983113;28;20035;-82
2022/04/10 06:13:46;;;;;;;4.97;1.50;;;;;;;5.68;60.33;100853.16;4989130;28;20034;-82
2022/04/10 06:16:12;;;;;;;9.90;2.88;;;;;;;5.77;59.94;100849.34;4994281;28;20031;-82
2022/04/10 06:18:37;;;;;;;2.53;1.35;;;;;;;5.83;60.09;100854.31;4990057;28;20057;-82
2022/04/10 06:21:03;;;;;;;6.93;1.65;;;;;;;5.90;60.17;100857.50;4970826;28;20026;-82
2022/04/10 06:23:28;;;;;;;4.47;1.70;;;;;;;5.95;59.93;100859.03;4974898;28;20476;-82
2022/04/10 06:25:53;;;;;;;5.82;1.70;;;;;;;6.03;60.36;100860.50;4990604;28;20119;-82
2022/04/10 06:28:19;;;;;;;7.53;1.42;;;;;;;6.09;60.45;100862.84;4989060;28;20035;-83
2022/04/10 06:30:45;;;;;;;3.42;1.38;;;;;;;6.17;60.07;100860.75;4990384;28;20038;-83
2022/04/10 06:33:11;;;;;;;3.85;1.63;;;;;;;6.22;59.77;100861.41;4988157;28;20109;-83
2022/04/10 06:35:37;;;;;;;5.97;1.90;;;;;;;6.34;60.06;100873.09;4990228;28;20030;-83
2022/04/10 06:38:02;;;;;;;3.80;1.52;;;;;;;6.44;60.26;100873.53;4989575;28;20088;-82
2022/04/10 06:40:27;;;;;;;4.75;1.40;;;;;;;6.53;60.36;100875.72;4971842;28;20511;-82
2022/04/10 06:42:53;;;;;;;2.80;1.20;;;;;;;6.68;60.22;100869.00;4989071;28;20430;-82
2022/04/10 06:45:18;;;;;;;2.78;1.50;;;;;;;6.85;60.15;100868.25;4973192;28;20031;-82
2022/04/10 06:47:44;;;;;;;3.42;1.67;;;;;;;7.04;60.18;100868.25;4985586;28;20090;-82
2022/04/10 06:50:09;;;;;;;6.68;1.50;;;;;;;7.29;60.49;100873.22;4989137;28;20045;-83
2022/04/10 06:52:35;;;;;;;7.30;1.90;;;;;;;7.81;60.31;100869.84;4989888;28;20026;-82
2022/04/10 06:55:01;;;;;;;3.42;1.83;;;;;;;8.37;59.40;100871.38;4976732;28;20437;-81
2022/04/10 06:57:26;;;;;;;7.22;1.58;;;;;;;9.39;58.53;100874.72;4988575;28;20026;-82
2022/04/10 06:59:52;;;;;;;4.13;1.63;;;;;;;10.04;57.84;100865.81;4987386;28;20096;-82
2022/04/10 07:02:17;;;;;;;4.78;1.67;;;;;;;10.82;56.07;100873.44;4988896;28;20404;-83
2022/04/10 07:04:42;;;;;;;3.13;1.35;;;;;;;11.47;53.89;100855.31;4994507;28;20022;-82
2022/04/10 07:07:08;;;;;;;5.40;1.60;;;;;;;12.04;52.22;100850.75;4993327;28;20026;-82
2022/04/10 07:09:33;;;;;;;7.30;1.50;;;;;;;12.80;50.51;100857.00;4984780;28;20037;-82
2022/04/10 07:11:58;;;;;;;5.93;1.80;;;;;;;13.46;48.29;100842.59;4985853;28;20362;-83
2022/04/10 07:14:24;;;;;;;4.35;1.45;;;;;;;14.21;47.27;100846.69;4993580;28;20030;-82
2022/04/10 07:16:49;;;;;;;5.00;1.77;;;;;;;14.48;45.47;100854.31;4993537;28;20489;-83
2022/04/10 07:19:14;;;;;;;5.80;1.50;;;;;;;14.60;44.93;100852.56;4992862;28;20030;-83
2022/04/10 07:24:23;;;;;;;3.85;1.48;;;;;;;14.71;44.39;100848.22;4988668;28;20068;-83
2022/04/10 07:26:52;;;;;;;7.07;1.88;;;;;;;14.87;44.00;100849.56;4988084;28;20026;-82
2022/04/10 07:29:17;;;;;;;7.25;1.90;;;;;;;14.93;42.85;100845.59;4986496;28;20050;-83
2022/04/10 07:31:43;;;;;;;5.57;1.98;;;;;;;14.88;42.87;100855.69;4989355;28;20034;-83
2022/04/10 07:34:08;;;;;;;6.82;2.28;;;;;;;14.83;43.04;100852.53;4986618;28;20034;-83
2022/04/10 07:36:33;;;;;;;4.07;2.20;;;;;;;14.88;42.79;100845.94;4987290;28;20344;-83
2022/04/10 07:38:59;;;;;;;6.60;1.92;;;;;;;14.90;42.95;100855.56;4986020;28;20033;-83
2022/04/10 07:41:24;;;;;;;5.53;1.98;;;;;;;14.87;42.46;100860.13;4989121;28;20165;-83
2022/04/10 07:43:50;;;;;;;6.97;2.10;;;;;;;14.91;42.58;100858.09;4988565;28;20392;-83
2022/04/10 07:49:00;;;;;;;6.85;1.90;;;;;;;15.18;41.95;100862.13;4986670;28;20065;-83
2022/04/10 07:51:26;;;;;;;8.93;2.25;;;;;;;15.52;41.67;100862.03;4985835;28;20049;-83
2022/04/10 07:53:54;;;;;;;7.00;2.85;;;;;;;15.77;40.96;100853.81;4987221;28;20034;-83
2022/04/10 07:56:20;;;;;;;8.05;2.45;;;;;;;16.24;40.60;100864.88;4984812;28;20504;-83
2022/04/10 07:58:46;;;;;;;6.50;2.20;;;;;;;16.64;40.27;100858.81;4984621;28;20044;-83
2022/04/10 08:01:11;;;;;;;5.80;1.83;;;;;;;16.86;38.51;100854.34;4977248;28;20030;-82
2022/04/10 08:03:36;;;;;;;7.22;2.33;;;;;;;16.80;38.40;100852.19;4985930;28;20033;-83
2022/04/10 08:06:02;;;;;;;5.22;1.92;;;;;;;17.44;38.05;100858.97;4985345;28;20476;-83
2022/04/10 08:08:27;;;;;;;6.07;1.95;;;;;;;17.37;37.39;100856.00;4989303;28;20511;-83
2022/04/10 08:10:52;;;;;;;6.47;2.03;;;;;;;17.47;37.61;100858.66;4983884;28;20030;-83
2022/04/10 08:13:18;;;;;;;9.60;3.10;;;;;;;18.21;36.25;100854.63;4985175;28;20041;-83
2022/04/10 08:15:43;;;;;;;8.90;2.30;;;;;;;18.26;35.58;100859.50;4973130;28;20022;-83
2022/04/10 08:18:08;;;;;;;4.10;1.80;;;;;;;18.38;35.26;100848.59;4986485;28;20026;-83
2022/04/10 08:20:35;;;;;;;7.28;2.45;;;;;;;19.16;35.04;100850.09;4978859;28;20042;-83
2022/04/10 08:23:00;;;;;;;6.20;1.70;;;;;;;19.72;34.19;100851.66;4985592;28;20219;-83
2022/04/10 08:25:26;;;;;;;5.50;1.65;;;;;;;19.71;33.24;100847.34;4989144;28;20469;-83
2022/04/10 08:27:52;;;;;;;7.75;1.92;;;;;;;20.25;32.94;100857.91;4978054;28;20045;-83
2022/04/10 08:30:17;;;;;;;5.90;1.75;;;;;;;20.76;32.54;100850.91;4978362;28;20093;-84
2022/04/10 08:32:44;;;;;;;6.95;2.00;;;;;;;21.05;31.79;100854.19;4986711;28;20046;-83
2022/04/10 08:35:11;;;;;;;6.65;1.95;;;;;;;20.50;31.28;100850.91;4990469;28;20432;-82
2022/04/10 08:37:37;;;;;;;3.45;1.42;;;;;;;20.46;31.13;100851.38;4992115;28;20030;-82
2022/04/10 08:40:04;;;;;;;5.45;1.83;;;;;;;19.81;32.33;100850.75;4992908;28;20030;-83
2022/04/10 08:42:29;;;;;;;4.40;1.73;;;;;;;19.78;32.29;100844.91;4985048;28;20113;-82
2022/04/10 08:44:55;;;;;;;7.75;2.00;;;;;;;19.21;32.99;100843.34;4988091;28;20101;-83
2022/04/10 08:47:21;;;;;;;5.00;2.13;;;;;;;19.13;33.25;100839.72;4990060;28;20214;-82
2022/04/10 08:49:51;;;;;;;6.82;1.92;;;;;;;19.22;33.16;100850.31;4990618;28;20559;-83
2022/04/10 08:52:17;;;;;;;3.33;1.45;;;;;;;19.07;32.17;100853.63;4983305;28;20536;-84
2022/04/10 08:54:47;;;;;;;3.95;1.40;;;;;;;18.87;32.22;100856.41;4987013;28;20050;-84
2022/04/10 08:57:13;;;;;;;5.15;1.45;;;;;;;18.80;33.06;100861.47;4988708;28;20022;-84
2022/04/10 08:59:40;;;;;;;7.00;1.98;;;;;;;18.21;33.23;100860.78;4983808;28;20020;-84
2022/04/10 09:02:06;;;;;;;6.68;1.48;;;;;;;18.50;33.44;100857.19;4983034;28;20073;-83
2022/04/10 09:04:31;;;;;;;8.90;1.92;;;;;;;18.17;33.67;100853.25;4972317;28;20026;-84
2022/04/10 09:07:02;;;;;;;5.28;2.08;;;;;;;18.20;33.08;100852.94;4980206;28;20543;-88
2022/04/10 09:09:29;;;;;;;3.60;1.50;;;;;;;18.37;33.42;100856.69;4991960;28;20034;-86
2022/04/10 09:11:55;;;;;;;5.28;1.55;;;;;;;18.97;32.81;100856.34;4983888;28;20034;-86
2022/04/10 09:14:21;;;;;;;6.03;1.77;;;;;;;19.39;32.83;100856.66;4989136;28;20026;-84
2022/04/10 09:17:10;;;;;;;5.28;1.42;;;;;;;19.67;31.54;100859.28;4991734;28;20472;-84
2022/04/10 09:19:37;;;;;;;5.53;1.45;;;;;;;20.08;30.79;100854.28;4985760;28;20026;-84
2022/04/10 09:22:22;;;;;;;4.70;1.55;;;;;;;20.61;30.39;100852.50;4983137;28;20626;-84
2022/04/10 09:25:20;;;;;;;5.00;1.45;;;;;;;20.72;30.31;100848.72;4981593;28;20479;-84
2022/04/10 09:27:49;;;;;;;5.10;1.80;;;;;;;20.88;29.74;100856.78;4976068;28;20054;-84
2022/04/10 09:30:19;;;;;;;4.22;1.45;;;;;;;21.28;29.59;100851.75;4991126;28;20377;-83
2022/04/10 09:32:45;;;;;;;6.97;1.38;;;;;;;21.64;28.95;100852.31;4991199;28;20073;-83
2022/04/10 09:35:16;;;;;;;7.07;1.60;;;;;;;21.96;28.39;100848.84;4991656;28;20026;-83
2022/04/10 09:37:52;;;;;;;7.70;1.60;;;;;;;22.55;28.49;100851.28;4989878;28;20052;-84
2022/04/10 09:40:31;;;;;;;5.57;1.40;;;;;;;22.31;28.00;100843.31;4992086;28;20095;-84
2022/04/10 09:43:03;;;;;;;3.80;0.90;;;;;;;22.87;27.57;100846.81;4989819;28;20431;-84
2022/04/10 09:45:38;;;;;;;4.63;1.23;;;;;;;22.95;27.15;100838.75;4983426;28;20358;-84
2022/04/10 09:48:24;;;;;;;3.92;1.13;;;;;;;23.62;26.98;100856.13;4984790;28;20100;-84
2022/04/10 09:50:52;;;;;;;5.28;1.58;;;;;;;23.14;26.98;100852.72;4984213;28;20117;-88
2022/04/10 09:53:18;;;;;;;6.80;1.15;;;;;;;23.24;26.58;100847.16;4981412;28;20448;-87
2022/04/10 09:55:44;;;;;;;2.85;1.10;;;;;;;22.58;27.07;100848.25;4981554;28;20113;-88
2022/04/10 09:58:11;;;;;;;4.57;1.23;;;;;;;22.06;28.29;100847.81;4982875;28;20106;-89
2022/04/10 10:00:39;;;;;;;4.55;1.20;;;;;;;22.75;27.98;100837.50;4981341;28;20476;-88
2022/04/10 10:03:06;;;;;;;5.72;1.13;;;;;;;22.85;28.03;100832.78;4984954;28;21244;-88
2022/04/10 10:05:32;;;;;;;4.20;1.15;;;;;;;22.58;27.74;100831.38;4986554;28;20049;-88
2022/04/10 10:07:59;;;;;;;4.05;1.20;;;;;;;22.75;27.80;100826.81;4985872;28;20038;-89
2022/04/10 10:10:25;;;;;;;3.67;1.20;;;;;;;22.71;28.18;100820.09;4982711;28;20035;-88
2022/04/10 10:12:51;;;;;;;5.40;1.63;;;;;;;22.65;28.27;100820.78;4985850;28;20041;-88
2022/04/10 10:15:17;;;;;;;7.82;1.40;;;;;;;22.15;29.03;100820.91;4999668;28;20038;-88
2022/04/10 10:17:43;;;;;;;2.95;1.05;;;;;;;22.99;27.97;100815.13;5006337;28;20048;-88
2022/04/10 10:20:10;;;;;;;7.30;1.33;;;;;;;22.76;27.63;100807.88;5000691;28;20022;-86
2022/04/10 10:22:36;;;;;;;4.35;1.60;;;;;;;23.46;26.86;100799.94;4988833;28;20065;-87
2022/04/10 10:25:12;;;;;;;6.18;1.63;;;;;;;23.65;27.30;100796.78;4985148;28;20500;-87
2022/04/10 10:27:37;;;;;;;5.82;1.70;;;;;;;23.35;27.04;100790.50;4988429;28;20042;-87
2022/04/10 10:30:22;;;;;;;3.13;1.00;;;;;;;23.42;27.48;100791.47;4988813;28;20476;-87
2022/04/10 10:32:50;;;;;;;4.00;1.48;;;;;;;23.48;26.92;100780.00;4983466;28;20080;-86
2022/04/10 10:35:38;;;;;;;5.05;1.50;;;;;;;23.96;26.71;100782.47;4984925;28;20035;-88
2022/04/10 10:38:21;;;;;;;3.22;1.10;;;;;;;23.97;26.30;100773.38;4989103;28;20448;-88
2022/04/10 10:40:52;;;;;;;2.97;1.00;;;;;;;24.24;25.79;100771.09;4988578;28;20032;-87
2022/04/10 10:43:24;;;;;;;5.45;1.13;;;;;;;24.27;25.17;100771.56;4981278;28;20030;-88
2022/04/10 10:45:50;;;;;;;5.10;0.93;;;;;;;24.00;24.94;100772.22;4983301;28;20535;-88
2022/04/10 10:48:31;;;;;;;3.03;0.82;;;;;;;23.60;25.23;100769.69;4989366;28;20486;-85
2022/04/10 10:51:22;;;;;;;3.30;0.93;;;;;;;22.64;25.93;100768.28;4986499;28;20436;-87
2022/04/10 10:53:57;;;;;;;3.40;1.08;;;;;;;23.02;26.07;100769.28;4987223;28;20030;-89
2022/04/10 10:56:36;;;;;;;2.45;1.05;;;;;;;23.06;26.48;100759.03;4985845;28;20116;-86
2022/04/10 10:59:21;;;;;;;4.10;0.93;;;;;;;22.79;26.42;100753.16;4987356;28;20026;-88
2022/04/10 11:02:05;;;;;;;3.45;0.88;;;;;;;22.69;25.96;100742.66;4989765;28;20026;-90
2022/04/10 11:04:39;;;;;;;2.92;1.13;;;;;;;22.69;26.37;100763.22;4988391;28;20022;-88
2022/04/10 11:07:19;;;;;;;2.78;0.80;;;;;;;22.39;26.29;100763.03;4990224;28;20133;-86
2022/04/10 11:09:55;;;;;;;3.50;0.90;;;;;;;22.84;26.38;100755.31;4991604;28;20528;-87
2022/04/10 11:12:22;;;;;;;2.00;0.73;;;;;;;22.71;25.79;100753.19;4994724;28;20045;-87
2022/04/10 11:14:50;;;;;;;4.78;1.23;;;;;;;22.89;27.10;100759.13;4997560;28;20028;-82
2022/04/10 11:17:19;;;;;;;3.05;1.13;;;;;;;23.10;25.88;100755.81;4996674;28;20035;-83
2022/04/10 11:21:10;;;;;;;3.78;1.00;;;;;;;22.38;26.60;100756.03;5035413;28;20128;-87
2022/04/10 11:23:44;;;;;;;2.92;0.93;;;;;;;22.82;26.45;100746.63;5024003;28;20056;-88
2022/04/10 11:26:13;;;;;;;4.13;1.15;;;;;;;22.77;26.47;100744.47;4989547;28;20034;-88
2022/04/10 11:28:57;;;;;;;3.15;0.90;;;;;;;22.61;27.06;100747.22;5011145;28;20029;-84
2022/04/10 11:31:34;;;;;;;2.40;0.70;;;;;;;23.22;26.76;100736.66;5026705;28;20034;-84
2022/04/10 11:34:07;;;;;;;3.40;0.80;;;;;;;22.77;27.13;100739.94;5004304;28;20022;-83
2022/04/10 11:36:51;;;;;;;4.60;1.35;;;;;;;22.66;27.23;100736.81;5005574;28;20018;-89